Time;durP1;ratioP1;P1;durP2;ratioP2;P2;SDS_P1;SDS_P2;PMS_P1;PMS_P2;Temp;Humidity;BMP_temperature;BMP_pressure;BME280_temperature;BME280_humidity;BME280_pressure;Samples;Min_cycle;Max_cycle;Signal;HPM_P1;HPM_P2
2021/01/19 12:54:41;;;;;;;0.98;0.73;;;19.60;49.70;;;;;;5131027;27;20424;-45
2021/01/19 14:55:10;;;;;;;0.60;0.60;;;3.30;78.50;;;;;;5174088;27;20478;-78
2021/01/19 14:57:41;;;;;;;0.80;0.80;;;3.60;79.40;;;;;;5173280;27;20424;-78
2021/01/19 15:00:40;;;;;;;1.50;0.70;;;3.50;79.30;;;;;;5071596;28;20533;-78
2021/01/19 15:05:53;;;;;;;0.70;0.70;;;3.50;80.20;;;;;;5165891;27;20935;-79
2021/01/19 15:08:19;;;;;;;0.60;0.60;;;3.50;81.30;;;;;;5131859;28;20403;-78
2021/01/19 15:27:31;;;;;;;0.63;0.63;;;3.30;82.80;;;;;;5111629;27;20290;-45
2021/01/19 15:29:59;;;;;;;0.70;0.70;;;3.40;84.90;;;;;;5127758;22;20979;-46
2021/01/19 15:32:26;;;;;;;0.60;0.60;;;3.30;85.80;;;;;;5111360;28;20431;-45
2021/01/19 15:34:52;;;;;;;0.70;0.50;;;3.30;86.10;;;;;;5110563;28;20410;-45
2021/01/19 15:37:19;;;;;;;0.67;0.60;;;3.30;86.40;;;;;;5110555;28;20964;-45
2021/01/19 15:39:45;;;;;;;0.70;0.70;;;3.30;86.90;;;;;;5110853;28;20471;-45
2021/01/19 15:42:11;;;;;;;1.90;1.10;;;3.30;87.30;;;;;;5110784;28;20405;-45
2021/01/19 15:44:38;;;;;;;0.50;0.50;;;3.20;88.00;;;;;;5110814;28;20525;-44
2021/01/19 15:47:04;;;;;;;0.83;0.70;;;3.20;88.60;;;;;;5110698;28;20463;-45
2021/01/19 15:49:31;;;;;;;0.63;0.63;;;3.20;89.00;;;;;;5110644;28;20424;-45
2021/01/19 15:51:57;;;;;;;0.60;0.60;;;3.20;89.80;;;;;;5110686;28;20399;-46
2021/01/19 15:54:23;;;;;;;0.60;0.60;;;3.20;90.30;;;;;;5110619;28;20394;-45
2021/01/19 15:56:51;;;;;;;0.80;0.67;;;3.20;90.80;;;;;;5110401;28;20487;-45
2021/01/19 15:59:20;;;;;;;0.70;0.70;;;3.10;91.10;;;;;;5110476;28;20407;-45
2021/01/19 16:01:48;;;;;;;0.60;0.60;;;3.10;91.50;;;;;;5126886;22;20483;-46
2021/01/19 16:04:15;;;;;;;1.77;0.60;;;3.10;91.70;;;;;;5127248;22;20453;-45
2021/01/19 16:06:41;;;;;;;0.60;0.53;;;3.10;92.10;;;;;;5110253;28;20433;-46
2021/01/19 16:09:09;;;;;;;0.80;0.60;;;3.10;92.70;;;;;;5110300;28;20423;-45
2021/01/19 16:11:36;;;;;;;0.90;0.73;;;3.10;92.90;;;;;;5109971;28;20919;-45
2021/01/19 16:14:03;;;;;;;2.93;1.30;;;3.10;93.30;;;;;;5109875;28;20962;-45
2021/01/19 16:16:33;;;;;;;2.80;0.70;;;3.00;93.60;;;;;;5111161;28;21003;-48
2021/01/19 16:19:01;;;;;;;1.23;0.80;;;3.00;94.20;;;;;;5111377;28;20431;-46
2021/01/19 16:21:27;;;;;;;1.70;1.37;;;3.00;94.80;;;;;;5110414;28;20406;-44
2021/01/19 16:23:54;;;;;;;1.00;0.83;;;2.90;95.30;;;;;;5110028;28;20438;-45
2021/01/19 16:26:22;;;;;;;1.73;1.00;;;2.90;95.90;;;;;;5108630;28;20455;-45
2021/01/19 16:28:50;;;;;;;2.93;1.13;;;2.80;96.00;;;;;;5096110;28;20436;-46
2021/01/19 16:31:18;;;;;;;1.17;0.80;;;2.80;96.70;;;;;;5095700;28;20451;-45
2021/01/19 16:33:45;;;;;;;1.20;1.10;;;2.80;97.20;;;;;;5096345;28;20464;-46
2021/01/19 17:56:07;;;;;;;0.90;0.80;;;3.10;99.90;;;;;;5024670;22;20439;-42
2021/01/19 17:58:33;;;;;;;1.23;1.10;;;3.10;99.90;;;;;;5037299;28;20195;-43
2021/01/19 18:00:59;;;;;;;1.43;1.10;;;3.10;99.90;;;;;;5034461;28;20431;-42
2021/01/19 18:03:28;;;;;;;0.80;0.80;;;3.10;99.90;;;;;;5034448;28;20431;-43
2021/01/19 18:05:54;;;;;;;0.70;0.70;;;3.20;99.90;;;;;;5034743;28;20458;-42
2021/01/19 18:08:20;;;;;;;2.13;1.93;;;3.20;99.90;;;;;;5035952;28;20434;-42
2021/01/19 18:10:47;;;;;;;1.30;1.20;;;3.20;99.90;;;;;;5037733;28;20431;-43
2021/01/19 18:13:14;;;;;;;2.60;2.00;;;3.20;99.90;;;;;;5036933;28;20443;-42
2021/01/19 18:15:40;;;;;;;2.60;1.93;;;3.10;99.90;;;;;;5035279;28;20536;-42
2021/01/19 18:18:06;;;;;;;4.60;3.20;;;3.10;99.90;;;;;;5034231;28;20431;-42
2021/01/19 18:20:34;;;;;;;6.97;4.30;;;3.10;99.90;;;;;;5034078;28;20467;-42
2021/01/19 18:23:00;;;;;;;8.13;2.30;;;3.10;99.90;;;;;;5035081;28;20485;-44
2021/01/19 18:25:28;;;;;;;2.60;2.37;;;3.10;99.90;;;;;;5034720;28;20462;-43
2021/01/19 18:27:54;;;;;;;2.13;1.63;;;3.10;99.90;;;;;;5034721;28;20909;-43
2021/01/19 18:30:22;;;;;;;1.30;1.20;;;3.00;99.90;;;;;;5033927;28;20789;-43
2021/01/19 18:32:54;;;;;;;3.53;1.30;;;3.00;99.90;;;;;;5034014;28;20471;-44
2021/01/19 18:35:20;;;;;;;3.37;1.00;;;3.00;99.90;;;;;;5057101;22;20485;-45
2021/01/19 18:37:47;;;;;;;2.30;1.50;;;3.00;99.90;;;;;;5014011;28;20969;-44
2021/01/19 18:40:14;;;;;;;1.40;1.17;;;3.10;99.90;;;;;;5041737;22;20409;-44
2021/01/19 18:42:42;;;;;;;1.00;0.90;;;3.10;99.90;;;;;;5053114;22;20995;-44
2021/01/19 18:45:09;;;;;;;1.20;1.10;;;3.10;99.90;;;;;;5033733;28;20437;-44
2021/01/19 18:47:36;;;;;;;1.57;0.80;;;3.10;99.90;;;;;;5033635;28;20492;-44
2021/01/19 18:50:03;;;;;;;1.33;1.00;;;3.20;99.90;;;;;;5052451;22;20504;-44
2021/01/19 18:52:29;;;;;;;1.03;0.90;;;3.20;99.90;;;;;;5050942;22;20506;-44
2021/01/19 18:54:56;;;;;;;0.83;0.83;;;3.20;99.90;;;;;;5051930;22;20502;-43
2021/01/19 18:57:23;;;;;;;1.03;0.90;;;3.20;99.90;;;;;;5033491;28;20405;-44
2021/01/19 18:59:50;;;;;;;2.80;1.53;;;3.20;99.90;;;;;;5033479;28;20423;-43
2021/01/19 19:02:23;;;;;;;1.50;1.40;;;3.10;99.90;;;;;;5033435;28;20430;-43
2021/01/19 19:04:51;;;;;;;2.60;1.53;;;3.10;99.90;;;;;;5032917;28;20493;-44
2021/01/19 19:07:17;;;;;;;2.50;1.70;;;3.10;99.90;;;;;;5033274;28;20451;-44
2021/01/19 19:09:44;;;;;;;2.87;1.67;;;3.10;99.90;;;;;;5033294;28;20512;-44
2021/01/19 19:12:11;;;;;;;2.20;1.50;;;3.10;99.90;;;;;;5033280;28;20443;-44
2021/01/19 19:14:37;;;;;;;1.63;1.37;;;3.00;99.90;;;;;;5032845;28;20849;-44
2021/01/19 19:17:03;;;;;;;2.00;1.53;;;3.00;99.90;;;;;;5033174;28;20487;-43
2021/01/19 19:19:29;;;;;;;1.73;1.63;;;3.10;99.90;;;;;;5033222;28;20805;-43
2021/01/19 19:21:56;;;;;;;1.77;1.40;;;3.00;99.90;;;;;;5033244;28;20492;-44
2021/01/19 19:24:23;;;;;;;1.40;1.27;;;3.00;99.90;;;;;;5033191;28;20501;-44
2021/01/19 19:26:49;;;;;;;2.07;1.23;;;3.00;99.90;;;;;;5033109;28;20421;-44
2021/01/19 19:29:16;;;;;;;3.00;1.40;;;2.90;99.90;;;;;;5032815;28;20505;-43
2021/01/19 19:31:45;;;;;;;1.80;1.50;;;2.80;99.90;;;;;;5032799;28;20950;-44
2021/01/19 19:34:12;;;;;;;4.03;2.10;;;2.70;99.90;;;;;;5051874;22;20833;-43
2021/01/19 19:36:38;;;;;;;2.97;2.10;;;2.70;99.90;;;;;;5041745;28;20483;-45
2021/01/19 19:39:06;;;;;;;1.77;1.40;;;2.70;99.90;;;;;;5042752;28;20417;-43
2021/01/19 19:41:32;;;;;;;2.40;1.77;;;2.60;99.90;;;;;;5073799;22;20766;-44
2021/01/19 19:43:59;;;;;;;2.00;1.40;;;2.60;99.90;;;;;;5072416;22;20814;-44
2021/01/19 19:46:26;;;;;;;1.30;1.20;;;2.60;99.90;;;;;;5013493;28;20442;-44
2021/01/19 19:48:54;;;;;;;1.07;0.97;;;2.60;99.90;;;;;;5013233;28;20440;-44
2021/01/19 19:51:21;;;;;;;2.03;1.50;;;2.60;99.90;;;;;;5012950;28;20808;-44
2021/01/19 19:53:48;;;;;;;1.90;1.53;;;2.60;99.90;;;;;;5013219;28;20429;-43
2021/01/19 19:56:16;;;;;;;2.90;1.53;;;2.50;99.90;;;;;;5013844;28;20487;-43
2021/01/19 19:58:42;;;;;;;4.30;1.87;;;2.50;99.90;;;;;;5013136;28;20426;-43
2021/01/19 20:01:09;;;;;;;1.70;1.07;;;2.50;99.90;;;;;;5012865;28;20433;-43
2021/01/19 20:03:35;;;;;;;1.40;1.30;;;2.50;99.90;;;;;;5016238;28;20869;-44
2021/01/19 20:06:03;;;;;;;1.20;1.10;;;2.50;99.90;;;;;;5016470;28;20898;-44
2021/01/19 20:08:30;;;;;;;1.20;1.00;;;2.50;99.90;;;;;;5016827;28;20430;-44
2021/01/19 20:10:56;;;;;;;1.10;1.10;;;2.60;99.90;;;;;;5016773;28;20435;-43
2021/01/19 20:13:23;;;;;;;1.97;1.07;;;2.60;99.90;;;;;;5016710;28;20421;-43
2021/01/19 20:15:51;;;;;;;0.93;0.93;;;2.60;99.90;;;;;;5016435;28;20476;-44
2021/01/19 20:18:17;;;;;;;1.30;1.20;;;2.60;99.90;;;;;;5016633;28;20452;-43
2021/01/19 20:20:44;;;;;;;0.80;0.80;;;2.60;99.90;;;;;;5016205;28;20474;-44
2021/01/19 20:23:10;;;;;;;1.97;1.00;;;2.60;99.90;;;;;;5016147;28;20426;-43
2021/01/19 20:25:41;;;;;;;0.60;0.60;;;2.50;99.90;;;;;;5016063;28;20980;-43
2021/01/19 20:28:08;;;;;;;3.13;0.80;;;2.60;99.90;;;;;;5016441;28;20447;-43
2021/01/19 20:30:35;;;;;;;1.23;0.80;;;2.60;99.90;;;;;;5016027;28;20418;-43
2021/01/19 20:33:01;;;;;;;0.50;0.50;;;2.60;99.90;;;;;;5016293;28;20418;-44
2021/01/19 20:35:27;;;;;;;0.60;0.60;;;2.60;99.90;;;;;;5015831;28;21117;-44
2021/01/19 20:37:55;;;;;;;1.00;1.00;;;2.60;99.90;;;;;;5016145;28;20433;-44
2021/01/19 20:40:22;;;;;;;2.47;0.80;;;2.60;99.90;;;;;;5016131;28;20476;-44
2021/01/19 20:42:48;;;;;;;1.03;0.97;;;2.60;99.90;;;;;;5015697;28;20475;-44
2021/01/19 20:45:15;;;;;;;0.97;0.87;;;2.60;99.90;;;;;;5016026;28;20467;-43
2021/01/19 20:47:43;;;;;;;1.80;0.80;;;2.50;99.90;;;;;;5016059;28;20440;-43
2021/01/19 20:50:11;;;;;;;0.90;0.83;;;2.50;99.90;;;;;;5015719;28;20459;-44
2021/01/19 20:52:38;;;;;;;1.20;1.10;;;2.50;99.90;;;;;;5015626;28;20985;-44
2021/01/19 20:55:07;;;;;;;1.47;1.10;;;2.40;99.90;;;;;;5015591;28;21011;-44
2021/01/19 20:57:34;;;;;;;2.60;1.00;;;2.40;99.90;;;;;;5015817;28;20458;-43
2021/01/19 21:00:00;;;;;;;1.80;1.00;;;2.40;99.90;;;;;;5015807;28;20445;-43
2021/01/19 21:02:26;;;;;;;1.07;0.80;;;2.40;99.90;;;;;;5015753;28;20501;-43
2021/01/19 21:04:54;;;;;;;0.80;0.80;;;2.40;99.90;;;;;;5025750;28;20445;-43
2021/01/19 21:07:20;;;;;;;1.60;1.20;;;2.40;99.90;;;;;;5027202;28;20429;-43
2021/01/19 21:09:46;;;;;;;1.00;1.00;;;2.30;99.90;;;;;;5019233;28;20455;-44
2021/01/19 21:12:12;;;;;;;3.23;1.10;;;2.30;99.90;;;;;;5015463;28;20949;-43
2021/01/19 21:14:39;;;;;;;1.70;1.60;;;2.30;99.90;;;;;;5015301;28;20466;-44
2021/01/19 21:17:05;;;;;;;1.00;0.90;;;2.30;99.90;;;;;;5015384;28;20483;-44
2021/01/19 21:19:31;;;;;;;1.30;1.20;;;2.30;99.90;;;;;;5015470;28;20448;-43
2021/01/19 21:21:58;;;;;;;1.70;1.10;;;2.30;99.90;;;;;;5016140;28;20439;-43
2021/01/19 21:26:51;;;;;;;2.10;1.30;;;2.20;99.90;;;;;;5053977;22;20490;-44
2021/01/19 21:29:19;;;;;;;1.40;1.30;;;2.10;99.90;;;;;;5035063;28;20452;-44
2021/01/19 21:31:45;;;;;;;1.27;1.17;;;2.10;99.90;;;;;;5035432;28;20811;-43
2021/01/19 21:34:11;;;;;;;2.17;1.47;;;2.10;99.90;;;;;;5034932;28;20424;-44
2021/01/19 21:36:37;;;;;;;1.47;1.13;;;2.10;99.90;;;;;;5034878;28;20457;-42
2021/01/19 21:39:05;;;;;;;2.50;1.47;;;2.10;99.90;;;;;;5034926;28;20477;-43
2021/01/19 21:41:31;;;;;;;1.77;1.17;;;2.00;99.90;;;;;;5044212;22;20494;-42
2021/01/19 21:43:57;;;;;;;1.50;1.40;;;2.10;99.90;;;;;;5034952;28;20492;-43
2021/01/19 21:46:24;;;;;;;2.23;1.40;;;2.10;99.90;;;;;;5034661;28;20473;-43
2021/01/19 21:48:50;;;;;;;1.40;1.30;;;2.10;99.90;;;;;;5034769;28;20431;-42
2021/01/19 21:51:16;;;;;;;1.67;1.43;;;2.10;99.90;;;;;;5034728;28;20401;-43
2021/01/19 21:53:43;;;;;;;1.73;1.07;;;2.10;99.90;;;;;;5043340;22;20527;-42
2021/01/19 21:56:11;;;;;;;1.80;1.00;;;2.10;99.90;;;;;;5045831;22;20494;-43
2021/01/19 21:58:39;;;;;;;1.10;1.00;;;2.10;99.90;;;;;;5034609;28;20488;-43
2021/01/19 22:01:07;;;;;;;1.60;1.23;;;2.10;99.90;;;;;;5034349;28;20891;-43
2021/01/19 22:03:33;;;;;;;2.00;1.10;;;2.10;99.90;;;;;;5034502;28;20783;-43
2021/01/19 22:06:00;;;;;;;1.60;1.23;;;2.10;99.90;;;;;;5053428;22;20538;-43
2021/01/19 22:08:27;;;;;;;1.53;1.10;;;2.00;99.90;;;;;;5052435;22;20860;-43
2021/01/19 22:10:54;;;;;;;1.20;1.10;;;2.00;99.90;;;;;;5034409;28;20429;-43
2021/01/19 22:13:21;;;;;;;1.53;0.90;;;1.90;99.90;;;;;;5034037;28;20405;-43
2021/01/19 22:15:47;;;;;;;1.33;0.90;;;1.90;99.90;;;;;;5034169;28;20557;-43
2021/01/19 22:18:13;;;;;;;1.97;1.20;;;1.90;99.90;;;;;;5034275;28;20426;-43
2021/01/19 22:20:40;;;;;;;1.63;1.37;;;2.00;99.90;;;;;;5034072;28;20406;-43
2021/01/19 22:23:06;;;;;;;1.90;1.40;;;2.00;99.90;;;;;;5034293;28;20410;-43
2021/01/19 22:25:32;;;;;;;1.63;1.53;;;2.10;99.90;;;;;;5033559;28;20434;-43
2021/01/19 22:28:00;;;;;;;1.57;1.27;;;2.10;99.90;;;;;;5034336;28;20417;-44
2021/01/19 22:30:30;;;;;;;1.43;1.30;;;2.10;99.90;;;;;;5034883;28;20431;-43
2021/01/19 22:32:57;;;;;;;1.40;1.30;;;2.10;99.90;;;;;;5044230;28;20473;-43
2021/01/19 22:35:26;;;;;;;1.50;1.10;;;2.10;99.90;;;;;;5047007;28;20463;-43
2021/01/19 22:37:52;;;;;;;1.50;1.27;;;2.10;99.90;;;;;;5040424;28;20460;-43
2021/01/19 22:40:18;;;;;;;1.37;1.03;;;2.10;99.90;;;;;;5033871;28;20402;-43
2021/01/19 22:42:45;;;;;;;2.17;1.40;;;2.10;99.90;;;;;;5033661;28;20909;-43
2021/01/19 22:45:12;;;;;;;2.00;1.30;;;2.10;99.90;;;;;;5033918;28;20520;-43
2021/01/19 22:47:39;;;;;;;2.10;1.17;;;2.10;99.90;;;;;;5033816;28;20442;-43
2021/01/19 22:50:07;;;;;;;1.93;1.33;;;2.20;99.90;;;;;;5033482;28;20918;-43
2021/01/19 22:52:33;;;;;;;1.90;1.70;;;2.10;99.90;;;;;;5033455;28;20913;-43
2021/01/19 22:55:02;;;;;;;1.83;1.50;;;2.10;99.90;;;;;;5033430;28;20441;-44
2021/01/19 22:57:32;;;;;;;1.97;1.70;;;2.20;99.90;;;;;;5032990;28;20457;-43
2021/01/19 23:00:01;;;;;;;1.47;1.10;;;2.20;99.90;;;;;;5033261;28;20864;-43
2021/01/19 23:02:27;;;;;;;1.83;1.10;;;2.20;99.90;;;;;;5033974;28;20446;-43
2021/01/19 23:04:54;;;;;;;1.23;1.00;;;2.20;99.90;;;;;;5033319;28;20470;-43
2021/01/19 23:07:20;;;;;;;1.30;1.20;;;2.20;99.90;;;;;;5033139;28;20466;-43
2021/01/19 23:09:47;;;;;;;1.50;1.40;;;2.20;99.90;;;;;;5033439;28;20460;-43
2021/01/19 23:12:13;;;;;;;1.63;1.13;;;2.20;99.90;;;;;;5033365;28;20446;-43
2021/01/19 23:14:39;;;;;;;1.80;1.37;;;2.10;99.90;;;;;;5033186;28;20463;-43
2021/01/19 23:17:06;;;;;;;1.00;0.90;;;2.10;99.90;;;;;;5033372;28;20473;-43
2021/01/19 23:19:32;;;;;;;1.37;1.07;;;2.10;99.90;;;;;;5034184;28;20439;-43
2021/01/19 23:21:59;;;;;;;1.37;1.20;;;2.10;99.90;;;;;;5033314;28;20427;-43
2021/01/19 23:24:25;;;;;;;1.20;1.10;;;2.10;99.90;;;;;;5032984;28;20462;-43
2021/01/19 23:26:52;;;;;;;1.23;1.10;;;2.10;99.90;;;;;;5033189;28;20409;-43
2021/01/19 23:29:18;;;;;;;1.10;1.00;;;2.10;99.90;;;;;;5033253;28;20851;-42
2021/01/19 23:31:45;;;;;;;1.67;1.00;;;2.10;99.90;;;;;;5032970;28;20807;-43
2021/01/19 23:34:11;;;;;;;2.10;1.20;;;2.10;99.90;;;;;;5033176;28;20486;-43
2021/01/19 23:36:37;;;;;;;1.63;1.30;;;2.10;99.90;;;;;;5033191;28;20468;-43
2021/01/19 23:39:05;;;;;;;3.03;1.20;;;2.20;99.90;;;;;;5037275;28;20432;-43
2021/01/19 23:41:31;;;;;;;1.20;1.07;;;2.20;99.90;;;;;;5037084;28;20802;-43
2021/01/19 23:43:57;;;;;;;1.50;1.40;;;2.20;99.90;;;;;;5036855;28;20922;-43
2021/01/19 23:46:23;;;;;;;1.60;1.40;;;2.10;99.90;;;;;;5036927;28;20440;-43
2021/01/19 23:48:50;;;;;;;2.33;1.40;;;2.20;99.90;;;;;;5037881;28;20453;-42
2021/01/19 23:51:16;;;;;;;1.40;1.30;;;2.20;99.90;;;;;;5037048;28;20425;-43
2021/01/19 23:53:42;;;;;;;1.63;1.50;;;2.20;99.90;;;;;;5036894;28;20461;-42
2021/01/19 23:56:09;;;;;;;2.63;1.07;;;2.10;99.90;;;;;;5036885;28;20482;-43
2021/01/19 23:58:36;;;;;;;1.30;1.20;;;2.10;99.90;;;;;;5036914;28;20443;-42
